Time;durP1;ratioP1;P1;durP2;ratioP2;P2;SDS_P1;SDS_P2;PMS_P1;PMS_P2;Temp;Humidity;BMP_temperature;BMP_pressure;BME280_temperature;BME280_humidity;BME280_pressure;Samples;Min_cycle;Max_cycle;Signal;HPM_P1;HPM_P2
2022/04/28 00:00:09;;;;;;;58.25;2.55;;;;;;;;;;5095295;28;20263;-72
2022/04/28 00:02:36;;;;;;;58.15;2.75;;;;;;;;;;5094976;28;20234;-72
2022/04/28 00:05:04;;;;;;;58.28;2.70;;;;;;;;;;5094767;28;20228;-72
2022/04/28 00:07:31;;;;;;;58.22;2.78;;;;;;;;;;5094212;28;20207;-72
2022/04/28 00:10:00;;;;;;;58.45;2.90;;;;;;;;;;5094820;28;20315;-72
2022/04/28 00:12:27;;;;;;;58.58;3.10;;;;;;;;;;5094595;28;20665;-72
2022/04/28 00:14:54;;;;;;;58.22;2.80;;;;;;;;;;5094876;28;20236;-72
2022/04/28 00:17:22;;;;;;;58.70;3.40;;;;;;;;;;5094066;28;20295;-72
2022/04/28 00:19:49;;;;;;;58.25;2.78;;;;;;;;;;5094531;28;20311;-72
2022/04/28 00:22:16;;;;;;;58.30;2.70;;;;;;;;;;5094761;28;20582;-72
2022/04/28 00:24:44;;;;;;;58.28;2.67;;;;;;;;;;5094700;28;20305;-72
2022/04/28 00:27:12;;;;;;;57.65;2.67;;;;;;;;;;5094106;28;20243;-72
2022/04/28 00:29:40;;;;;;;57.55;2.92;;;;;;;;;;5094182;28;20232;-72
2022/04/28 00:32:08;;;;;;;58.17;2.95;;;;;;;;;;5094382;28;20240;-72
2022/04/28 00:34:35;;;;;;;58.38;2.70;;;;;;;;;;5093934;28;20228;-72
2022/04/28 00:37:02;;;;;;;57.95;2.60;;;;;;;;;;5094463;28;20206;-72
2022/04/28 00:39:30;;;;;;;58.58;2.90;;;;;;;;;;5093635;28;20315;-72
2022/04/28 00:41:57;;;;;;;57.95;2.83;;;;;;;;;;5094436;28;20208;-72
2022/04/28 00:44:25;;;;;;;57.97;2.80;;;;;;;;;;5094247;28;20311;-72
2022/04/28 00:46:53;;;;;;;59.22;3.30;;;;;;;;;;5094836;28;20204;-72
2022/04/28 00:52:05;;;;;;;58.30;2.80;;;;;;;;;;5094107;28;20206;-72
2022/04/28 00:54:32;;;;;;;58.72;3.63;;;;;;;;;;5094444;28;20283;-72
2022/04/28 00:57:00;;;;;;;58.58;2.90;;;;;;;;;;5094448;28;20283;-72
2022/04/28 00:59:29;;;;;;;58.70;3.20;;;;;;;;;;5093641;28;20324;-72
2022/04/28 01:01:56;;;;;;;58.70;2.83;;;;;;;;;;5094574;28;20237;-72
2022/04/28 01:04:24;;;;;;;58.63;2.90;;;;;;;;;;5093479;28;20220;-72
2022/04/28 01:06:52;;;;;;;58.47;2.85;;;;;;;;;;5094246;28;20207;-72
2022/04/28 01:09:19;;;;;;;58.28;2.75;;;;;;;;;;5093176;28;20227;-72
2022/04/28 01:11:46;;;;;;;58.00;2.90;;;;;;;;;;5093913;28;20226;-72
2022/04/28 01:14:13;;;;;;;58.03;2.85;;;;;;;;;;5094265;28;20650;-72
2022/04/28 01:16:42;;;;;;;58.25;2.90;;;;;;;;;;5094243;28;20206;-73
2022/04/28 01:19:09;;;;;;;61.40;5.25;;;;;;;;;;5093153;28;20224;-72
2022/04/28 01:21:38;;;;;;;59.00;3.67;;;;;;;;;;5094018;28;20297;-72
2022/04/28 01:24:05;;;;;;;58.47;2.70;;;;;;;;;;5093425;28;20274;-72
2022/04/28 01:26:33;;;;;;;58.25;2.85;;;;;;;;;;5093508;28;20207;-72
2022/04/28 01:29:00;;;;;;;58.28;2.83;;;;;;;;;;5093085;28;20319;-72
2022/04/28 01:31:27;;;;;;;58.08;2.88;;;;;;;;;;5093658;28;20212;-72
2022/04/28 01:33:55;;;;;;;58.47;3.00;;;;;;;;;;5093341;28;20200;-72
2022/04/28 01:36:22;;;;;;;58.08;2.55;;;;;;;;;;5093953;28;20212;-72
2022/04/28 01:38:50;;;;;;;57.88;2.90;;;;;;;;;;5092635;28;20263;-72
2022/04/28 01:41:17;;;;;;;58.25;2.90;;;;;;;;;;5093170;28;20295;-72
2022/04/28 01:43:46;;;;;;;58.03;3.00;;;;;;;;;;5093669;28;20263;-72
2022/04/28 01:46:13;;;;;;;58.47;3.60;;;;;;;;;;5093337;28;20677;-72
2022/04/28 01:48:40;;;;;;;58.20;2.80;;;;;;;;;;5090655;28;20244;-72
2022/04/28 01:56:40;;;;;;;57.53;2.90;;;;;;;;;;5091595;28;20261;-72
2022/04/28 01:59:07;;;;;;;58.28;2.88;;;;;;;;;;5092724;28;20235;-72
2022/04/28 02:01:34;;;;;;;58.58;2.70;;;;;;;;;;5093232;28;20210;-72
2022/04/28 02:04:01;;;;;;;57.92;2.70;;;;;;;;;;5093107;28;20311;-72
2022/04/28 02:06:28;;;;;;;58.15;2.75;;;;;;;;;;5093142;28;20204;-72
2022/04/28 02:08:57;;;;;;;58.50;2.75;;;;;;;;;;5092869;28;20220;-72
2022/04/28 02:11:24;;;;;;;58.30;2.65;;;;;;;;;;5093123;28;20575;-72
2022/04/28 02:13:51;;;;;;;57.95;2.80;;;;;;;;;;5093123;28;20204;-72
2022/04/28 02:16:18;;;;;;;58.28;2.85;;;;;;;;;;5092254;28;20565;-72
2022/04/28 02:18:46;;;;;;;58.35;3.20;;;;;;;;;;5092476;28;20652;-72
2022/04/28 02:21:13;;;;;;;58.22;2.70;;;;;;;;;;5093376;28;20200;-72
2022/04/28 02:23:40;;;;;;;58.17;2.80;;;;;;;;;;5092642;28;20704;-72
2022/04/28 02:26:08;;;;;;;58.10;2.65;;;;;;;;;;5092660;28;20240;-72
2022/04/28 02:28:35;;;;;;;57.63;2.78;;;;;;;;;;5092574;28;20204;-72
2022/04/28 02:31:03;;;;;;;58.50;3.25;;;;;;;;;;5092964;28;20200;-72
2022/04/28 02:33:30;;;;;;;58.03;2.85;;;;;;;;;;5093118;28;20200;-72
2022/04/28 02:35:57;;;;;;;58.15;3.25;;;;;;;;;;5092765;28;20245;-72
2022/04/28 02:38:24;;;;;;;58.08;3.10;;;;;;;;;;5092548;28;20211;-72
2022/04/28 02:40:51;;;;;;;58.03;2.80;;;;;;;;;;5093103;28;20208;-72
2022/04/28 02:43:20;;;;;;;58.30;2.67;;;;;;;;;;5092779;28;20291;-72
2022/04/28 02:45:48;;;;;;;58.58;3.30;;;;;;;;;;5092750;28;20242;-72
2022/04/28 02:48:15;;;;;;;58.17;3.20;;;;;;;;;;5092584;28;20223;-72
2022/04/28 02:50:42;;;;;;;58.17;2.60;;;;;;;;;;5093127;28;20246;-72
2022/04/28 02:53:09;;;;;;;58.58;3.08;;;;;;;;;;5092734;28;20204;-72
2022/04/28 02:55:39;;;;;;;58.03;3.20;;;;;;;;;;5092870;28;20295;-72
2022/04/28 02:58:08;;;;;;;58.17;2.90;;;;;;;;;;5092288;28;20208;-72
2022/04/28 03:00:37;;;;;;;57.97;3.03;;;;;;;;;;5092791;28;20273;-72
2022/04/28 03:03:04;;;;;;;58.15;2.80;;;;;;;;;;5092404;28;20204;-71
2022/04/28 03:05:31;;;;;;;58.60;3.20;;;;;;;;;;5092672;28;20572;-72
2022/04/28 03:10:51;;;;;;;57.97;2.90;;;;;;;;;;5092791;28;20311;-71
2022/04/28 03:13:19;;;;;;;57.67;2.80;;;;;;;;;;5092366;28;20208;-72
2022/04/28 03:15:48;;;;;;;58.28;3.90;;;;;;;;;;5092580;28;20210;-72
2022/04/28 03:18:15;;;;;;;57.80;2.78;;;;;;;;;;5092216;28;20740;-72
2022/04/28 03:20:42;;;;;;;58.47;2.80;;;;;;;;;;5092734;28;20228;-71
2022/04/28 03:23:11;;;;;;;58.05;2.80;;;;;;;;;;5092456;28;20223;-72
2022/04/28 03:25:38;;;;;;;58.17;2.92;;;;;;;;;;5092344;28;20227;-71
2022/04/28 03:28:06;;;;;;;57.85;2.90;;;;;;;;;;5095002;28;20645;-71
2022/04/28 03:30:33;;;;;;;58.38;3.17;;;;;;;;;;5096022;28;20228;-72
2022/04/28 03:33:02;;;;;;;57.95;2.90;;;;;;;;;;5095950;28;20212;-72
2022/04/28 03:35:29;;;;;;;58.38;2.60;;;;;;;;;;5095967;28;20696;-72
2022/04/28 03:37:58;;;;;;;57.88;2.78;;;;;;;;;;5095520;28;20261;-72
2022/04/28 03:40:25;;;;;;;58.58;3.35;;;;;;;;;;5095705;28;20301;-71
2022/04/28 03:42:52;;;;;;;57.50;2.80;;;;;;;;;;5096062;28;20206;-72
2022/04/28 03:45:19;;;;;;;58.25;2.70;;;;;;;;;;5095581;28;20220;-72
2022/04/28 03:47:47;;;;;;;58.42;3.60;;;;;;;;;;5095276;28;20615;-72
2022/04/28 03:50:15;;;;;;;58.05;3.20;;;;;;;;;;5096102;28;20228;-71
2022/04/28 03:52:42;;;;;;;58.65;3.58;;;;;;;;;;5095838;28;20204;-72
2022/04/28 03:55:10;;;;;;;57.85;2.70;;;;;;;;;;5095690;28;20227;-71
2022/04/28 03:57:37;;;;;;;58.17;3.00;;;;;;;;;;5095152;28;20560;-72
2022/04/28 04:00:05;;;;;;;58.58;2.88;;;;;;;;;;5095515;28;20262;-71
2022/04/28 04:02:32;;;;;;;58.30;2.70;;;;;;;;;;5095709;28;20200;-72
2022/04/28 04:04:59;;;;;;;58.15;2.85;;;;;;;;;;5095731;28;20232;-72
2022/04/28 04:07:31;;;;;;;58.25;2.90;;;;;;;;;;5094931;28;20266;-71
2022/04/28 04:09:58;;;;;;;58.65;3.53;;;;;;;;;;5095146;28;20590;-71
2022/04/28 04:12:25;;;;;;;57.35;2.65;;;;;;;;;;5094860;28;20205;-72
2022/04/28 04:14:52;;;;;;;58.72;2.90;;;;;;;;;;5095095;28;20480;-71
2022/04/28 04:17:20;;;;;;;58.40;2.65;;;;;;;;;;5094521;28;20209;-71
2022/04/28 04:19:47;;;;;;;58.72;3.10;;;;;;;;;;5094976;28;20737;-71
2022/04/28 04:22:14;;;;;;;58.35;3.03;;;;;;;;;;5094920;28;20676;-72
2022/04/28 04:24:43;;;;;;;58.22;2.63;;;;;;;;;;5094628;28;20220;-71
2022/04/28 04:27:10;;;;;;;57.53;2.92;;;;;;;;;;5094861;28;20208;-72
2022/04/28 04:29:38;;;;;;;58.25;2.95;;;;;;;;;;5094777;28;20224;-72
2022/04/28 04:32:24;;;;;;;58.70;3.00;;;;;;;;;;5094565;28;20214;-72
2022/04/28 04:34:52;;;;;;;58.05;2.75;;;;;;;;;;5094657;28;20212;-72
2022/04/28 04:37:19;;;;;;;58.10;3.22;;;;;;;;;;5094410;28;20200;-73
2022/04/28 04:39:48;;;;;;;57.83;3.13;;;;;;;;;;5093690;28;20227;-71
2022/04/28 04:42:16;;;;;;;58.13;2.75;;;;;;;;;;5094361;28;20230;-71
2022/04/28 04:44:43;;;;;;;58.60;2.88;;;;;;;;;;5094821;28;20228;-71
2022/04/28 04:47:10;;;;;;;58.45;2.85;;;;;;;;;;5093982;28;20240;-71
2022/04/28 04:49:37;;;;;;;58.13;3.08;;;;;;;;;;5094508;28;20236;-71
2022/04/28 04:52:05;;;;;;;57.95;2.83;;;;;;;;;;5094770;28;20691;-71
2022/04/28 04:54:33;;;;;;;58.25;2.78;;;;;;;;;;5094555;28;20577;-71
2022/04/28 04:57:01;;;;;;;58.67;3.05;;;;;;;;;;5094472;28;20205;-71
2022/04/28 04:59:28;;;;;;;57.83;3.10;;;;;;;;;;5093817;28;20228;-71
2022/04/28 05:01:55;;;;;;;58.50;2.85;;;;;;;;;;5094774;28;20204;-71
2022/04/28 05:04:23;;;;;;;57.83;2.67;;;;;;;;;;5093636;28;20321;-71
2022/04/28 05:06:50;;;;;;;58.47;3.10;;;;;;;;;;5093981;28;20537;-71
2022/04/28 05:09:17;;;;;;;58.58;2.88;;;;;;;;;;5093754;28;20310;-71
2022/04/28 05:11:44;;;;;;;58.47;2.80;;;;;;;;;;5094405;28;20591;-71
2022/04/28 05:14:12;;;;;;;57.72;2.90;;;;;;;;;;5093972;28;20664;-71
2022/04/28 05:16:40;;;;;;;57.92;3.00;;;;;;;;;;5093900;28;20690;-71
2022/04/28 05:19:07;;;;;;;58.50;2.95;;;;;;;;;;5093246;28;20663;-71
2022/04/28 05:21:34;;;;;;;57.47;2.75;;;;;;;;;;5094712;28;20201;-71
2022/04/28 05:24:01;;;;;;;57.42;2.90;;;;;;;;;;5094119;28;20279;-71
2022/04/28 05:26:28;;;;;;;58.15;2.70;;;;;;;;;;5094080;28;20603;-71
2022/04/28 05:28:55;;;;;;;58.30;3.10;;;;;;;;;;5092792;28;20220;-71
2022/04/28 05:31:24;;;;;;;58.35;3.80;;;;;;;;;;5093582;28;20723;-71
2022/04/28 05:33:51;;;;;;;57.80;2.90;;;;;;;;;;5093421;28;20200;-71
2022/04/28 05:36:18;;;;;;;57.88;3.15;;;;;;;;;;5093582;28;20291;-72
2022/04/28 05:38:45;;;;;;;58.50;3.20;;;;;;;;;;5092130;28;20316;-71
2022/04/28 05:41:13;;;;;;;58.15;2.90;;;;;;;;;;5092738;28;20751;-71
2022/04/28 05:46:27;;;;;;;57.85;2.60;;;;;;;;;;5092779;28;20236;-71
2022/04/28 05:48:54;;;;;;;58.60;4.47;;;;;;;;;;5092310;28;20266;-71
2022/04/28 05:51:21;;;;;;;57.90;2.60;;;;;;;;;;5092827;28;20205;-71
2022/04/28 05:53:48;;;;;;;57.70;2.50;;;;;;;;;;5092453;28;20287;-72
2022/04/28 05:56:15;;;;;;;57.88;2.50;;;;;;;;;;5092308;28;20200;-72
2022/04/28 05:58:43;;;;;;;57.97;2.58;;;;;;;;;;5091688;28;20231;-72
2022/04/28 06:01:10;;;;;;;57.97;2.75;;;;;;;;;;5092293;28;20212;-72
2022/04/28 06:03:39;;;;;;;57.78;2.80;;;;;;;;;;5092371;28;20619;-72
2022/04/28 06:06:06;;;;;;;58.08;2.85;;;;;;;;;;5092418;28;20225;-72
2022/04/28 06:08:34;;;;;;;58.17;2.85;;;;;;;;;;5091607;28;20296;-72
2022/04/28 06:11:01;;;;;;;57.58;2.90;;;;;;;;;;5091902;28;20204;-72
2022/04/28 06:13:28;;;;;;;58.20;2.90;;;;;;;;;;5092249;28;20235;-72
2022/04/28 06:15:56;;;;;;;58.00;2.60;;;;;;;;;;5092921;28;20294;-72
2022/04/28 06:18:23;;;;;;;58.65;4.40;;;;;;;;;;5091569;28;20231;-72
2022/04/28 06:20:51;;;;;;;58.15;2.72;;;;;;;;;;5092276;28;20240;-71
2022/04/28 06:23:18;;;;;;;58.08;2.75;;;;;;;;;;5092302;28;20240;-72
2022/04/28 06:25:47;;;;;;;58.05;2.75;;;;;;;;;;5091629;28;20225;-72
2022/04/28 06:28:14;;;;;;;57.75;2.70;;;;;;;;;;5091209;28;20210;-73
2022/04/28 06:30:42;;;;;;;57.50;3.10;;;;;;;;;;5091898;28;20229;-72
2022/04/28 06:33:09;;;;;;;58.17;3.60;;;;;;;;;;5092031;28;20533;-73
2022/04/28 06:35:36;;;;;;;58.30;2.80;;;;;;;;;;5091767;28;20207;-72
2022/04/28 06:38:05;;;;;;;57.97;2.83;;;;;;;;;;5091012;28;20205;-73
2022/04/28 06:40:32;;;;;;;58.17;2.90;;;;;;;;;;5091766;28;20258;-72
2022/04/28 06:42:59;;;;;;;58.10;2.80;;;;;;;;;;5091954;28;20211;-72
2022/04/28 06:45:26;;;;;;;58.03;2.80;;;;;;;;;;5091715;28;20490;-73
2022/04/28 06:47:53;;;;;;;58.17;2.97;;;;;;;;;;5090537;28;20472;-73
2022/04/28 06:50:21;;;;;;;58.17;2.90;;;;;;;;;;5091711;28;20561;-73
2022/04/28 06:52:48;;;;;;;58.00;2.77;;;;;;;;;;5091514;28;20452;-73
2022/04/28 06:55:16;;;;;;;58.07;2.80;;;;;;;;;;5091429;28;20454;-73
2022/04/28 06:57:43;;;;;;;58.23;2.80;;;;;;;;;;5091008;28;21031;-73
2022/04/28 07:00:11;;;;;;;57.97;2.73;;;;;;;;;;5091629;28;20476;-73
2022/04/28 07:02:39;;;;;;;58.20;2.53;;;;;;;;;;5094258;28;20532;-73
2022/04/28 07:05:07;;;;;;;59.80;4.80;;;;;;;;;;5095359;28;20506;-73
2022/04/28 07:07:34;;;;;;;58.03;2.63;;;;;;;;;;5094670;28;21016;-73
2022/04/28 07:10:01;;;;;;;58.17;2.77;;;;;;;;;;5095486;28;20478;-73
2022/04/28 07:12:29;;;;;;;58.17;3.00;;;;;;;;;;5095380;28;20491;-73
2022/04/28 07:14:57;;;;;;;58.03;2.67;;;;;;;;;;5095314;28;20537;-73
2022/04/28 07:17:24;;;;;;;57.97;2.70;;;;;;;;;;5094676;28;20450;-73
2022/04/28 07:19:51;;;;;;;57.97;2.60;;;;;;;;;;5095076;28;20473;-73
2022/04/28 07:22:18;;;;;;;58.20;2.53;;;;;;;;;;5095035;28;20958;-73
2022/04/28 07:24:45;;;;;;;58.03;2.60;;;;;;;;;;5095290;28;20549;-73
2022/04/28 07:27:12;;;;;;;58.07;2.67;;;;;;;;;;5094349;28;20485;-73
2022/04/28 07:29:41;;;;;;;58.07;2.80;;;;;;;;;;5095027;28;20501;-73
2022/04/28 07:32:08;;;;;;;58.13;2.60;;;;;;;;;;5095079;28;20457;-74
2022/04/28 07:34:37;;;;;;;58.07;2.50;;;;;;;;;;5094843;28;21013;-74
2022/04/28 07:37:04;;;;;;;57.87;2.50;;;;;;;;;;5095051;28;20460;-70
2022/04/28 07:39:31;;;;;;;57.73;2.50;;;;;;;;;;5094340;28;21019;-74
2022/04/28 07:41:58;;;;;;;57.97;2.57;;;;;;;;;;5094830;28;20942;-71
2022/04/28 07:44:25;;;;;;;57.77;2.63;;;;;;;;;;5094739;28;20532;-71
2022/04/28 07:46:54;;;;;;;57.67;2.43;;;;;;;;;;5094544;28;20485;-72
2022/04/28 07:49:22;;;;;;;57.47;2.50;;;;;;;;;;5093956;28;21004;-73
2022/04/28 07:51:49;;;;;;;57.93;2.60;;;;;;;;;;5094837;28;20878;-72
2022/04/28 07:54:17;;;;;;;57.87;3.00;;;;;;;;;;5094443;28;20449;-72
2022/04/28 07:56:44;;;;;;;57.80;2.90;;;;;;;;;;5094496;28;20931;-72
2022/04/28 07:59:11;;;;;;;57.77;2.37;;;;;;;;;;5093674;28;20554;-74
2022/04/28 08:01:38;;;;;;;58.00;2.60;;;;;;;;;;5094454;28;20565;-72
2022/04/28 08:04:07;;;;;;;58.00;2.47;;;;;;;;;;5094656;28;20446;-72
2022/04/28 08:06:34;;;;;;;57.77;2.60;;;;;;;;;;5094200;28;20569;-72
2022/04/28 08:09:01;;;;;;;58.00;2.50;;;;;;;;;;5093529;28;20549;-72
2022/04/28 08:11:28;;;;;;;58.07;2.60;;;;;;;;;;5094399;28;20529;-72
2022/04/28 08:13:56;;;;;;;57.87;2.57;;;;;;;;;;5093053;28;20525;-72
2022/04/28 08:16:23;;;;;;;57.57;2.43;;;;;;;;;;5094436;28;20450;-72
2022/04/28 08:18:50;;;;;;;57.67;2.33;;;;;;;;;;5093618;28;20493;-72
2022/04/28 08:21:19;;;;;;;57.77;2.40;;;;;;;;;;5094230;28;20450;-72
2022/04/28 08:23:46;;;;;;;58.07;3.27;;;;;;;;;;5093912;28;20454;-72
2022/04/28 08:26:13;;;;;;;57.83;2.37;;;;;;;;;;5093809;28;20565;-72
2022/04/28 08:28:40;;;;;;;57.57;2.30;;;;;;;;;;5093050;28;20470;-72
2022/04/28 08:31:07;;;;;;;57.77;2.77;;;;;;;;;;5093921;28;20453;-72
2022/04/28 08:33:34;;;;;;;57.73;2.43;;;;;;;;;;5094052;28;20551;-72
2022/04/28 08:36:01;;;;;;;57.63;2.40;;;;;;;;;;5094249;28;20438;-72
2022/04/28 08:38:31;;;;;;;58.03;2.50;;;;;;;;;;5093129;28;20446;-72
2022/04/28 08:41:01;;;;;;;57.67;2.50;;;;;;;;;;5093755;28;20456;-72
2022/04/28 08:43:29;;;;;;;57.83;2.37;;;;;;;;;;5093796;28;20453;-72
2022/04/28 08:48:47;;;;;;;57.87;2.60;;;;;;;;;;5092965;28;20465;-72
2022/04/28 08:51:14;;;;;;;57.90;2.40;;;;;;;;;;5093482;28;20435;-72
2022/04/28 08:53:44;;;;;;;57.83;2.40;;;;;;;;;;5093272;28;20450;-72
2022/04/28 08:56:11;;;;;;;58.00;2.40;;;;;;;;;;5093455;28;20522;-72
2022/04/28 08:58:39;;;;;;;57.80;2.50;;;;;;;;;;5092783;28;20458;-72
2022/04/28 09:01:06;;;;;;;57.53;2.30;;;;;;;;;;5093326;28;20455;-72
2022/04/28 09:03:33;;;;;;;57.77;2.50;;;;;;;;;;5093196;28;20451;-73
2022/04/28 09:06:15;;;;;;;57.80;2.60;;;;;;;;;;5093055;28;20525;-73
2022/04/28 09:08:44;;;;;;;60.27;4.50;;;;;;;;;;5092551;28;20601;-73
2022/04/28 09:11:17;;;;;;;58.60;3.27;;;;;;;;;;5093185;28;20484;-73
2022/04/28 09:16:29;;;;;;;57.80;2.43;;;;;;;;;;5093022;28;20420;-73
2022/04/28 09:18:56;;;;;;;57.87;2.33;;;;;;;;;;5092103;28;20552;-73
2022/04/28 09:21:23;;;;;;;57.80;2.40;;;;;;;;;;5092963;28;20528;-73
2022/04/28 09:23:53;;;;;;;57.83;2.40;;;;;;;;;;5092531;28;20448;-73
2022/04/28 09:26:24;;;;;;;57.57;2.40;;;;;;;;;;5092531;28;21024;-73
2022/04/28 09:28:51;;;;;;;57.80;2.50;;;;;;;;;;5091907;28;21050;-73
2022/04/28 09:31:19;;;;;;;57.77;2.50;;;;;;;;;;5092909;28;20446;-73
2022/04/28 09:33:47;;;;;;;57.87;2.60;;;;;;;;;;5092503;28;20543;-73
2022/04/28 09:36:14;;;;;;;57.87;2.40;;;;;;;;;;5092684;28;20514;-73
2022/04/28 09:38:42;;;;;;;57.77;2.17;;;;;;;;;;5091748;28;20474;-73
2022/04/28 09:43:56;;;;;;;57.57;2.30;;;;;;;;;;5092417;28;20425;-74
2022/04/28 09:46:24;;;;;;;57.63;2.70;;;;;;;;;;5092228;28;20482;-74
2022/04/28 09:48:52;;;;;;;57.80;2.20;;;;;;;;;;5091669;28;20482;-74
2022/04/28 09:51:22;;;;;;;57.63;2.37;;;;;;;;;;5092387;28;21015;-73
2022/04/28 09:53:51;;;;;;;57.73;2.30;;;;;;;;;;5092251;28;20443;-73
2022/04/28 09:56:24;;;;;;;57.43;2.30;;;;;;;;;;5092218;28;20434;-73
2022/04/28 09:58:52;;;;;;;57.27;2.30;;;;;;;;;;5091636;28;20836;-73
2022/04/28 10:01:20;;;;;;;57.43;2.30;;;;;;;;;;5092314;28;20532;-73
2022/04/28 10:03:47;;;;;;;57.37;2.10;;;;;;;;;;5092097;28;20491;-73
2022/04/28 10:06:14;;;;;;;57.63;2.20;;;;;;;;;;5092014;28;20529;-74
2022/04/28 10:08:42;;;;;;;57.87;2.10;;;;;;;;;;5091362;28;20545;-73
2022/04/28 10:11:10;;;;;;;57.57;2.40;;;;;;;;;;5091987;28;20486;-73
2022/04/28 10:13:41;;;;;;;57.40;1.90;;;;;;;;;;5091708;28;20538;-74
2022/04/28 10:16:09;;;;;;;57.67;2.00;;;;;;;;;;5092283;28;20441;-74
2022/04/28 10:18:41;;;;;;;57.50;1.80;;;;;;;;;;5091122;28;20529;-73
2022/04/28 10:21:10;;;;;;;57.33;1.80;;;;;;;;;;5091648;28;20476;-73
2022/04/28 10:34:58;;;;;;;57.40;1.80;;;;;;;;;;5091845;28;20888;-74
2022/04/28 10:37:31;;;;;;;57.27;1.80;;;;;;;;;;5093383;28;20525;-73
2022/04/28 10:39:58;;;;;;;57.20;1.73;;;;;;;;;;5096032;28;20820;-73
2022/04/28 10:42:40;;;;;;;57.07;1.80;;;;;;;;;;5095683;28;20439;-74
2022/04/28 10:45:19;;;;;;;57.13;1.80;;;;;;;;;;5095575;28;20476;-74
2022/04/28 10:47:46;;;;;;;57.23;1.87;;;;;;;;;;5095053;28;20586;-74
2022/04/28 10:50:22;;;;;;;58.17;2.27;;;;;;;;;;5095379;28;20971;-74
2022/04/28 10:52:55;;;;;;;57.30;1.80;;;;;;;;;;5095507;28;20442;-75
2022/04/28 10:55:23;;;;;;;57.30;1.80;;;;;;;;;;5095897;28;20446;-74
2022/04/28 10:57:51;;;;;;;57.03;1.60;;;;;;;;;;5094981;28;20451;-72
2022/04/28 11:00:33;;;;;;;58.10;2.00;;;;;;;;;;5095570;28;20541;-76
2022/04/28 11:03:02;;;;;;;56.90;1.60;;;;;;;;;;5095534;28;20949;-79
2022/04/28 11:05:35;;;;;;;56.90;1.83;;;;;;;;;;5094764;28;20955;-77
2022/04/28 11:08:02;;;;;;;57.00;1.73;;;;;;;;;;5095136;28;20486;-78
2022/04/28 11:10:29;;;;;;;56.97;1.60;;;;;;;;;;5106531;28;20549;-78
2022/04/28 11:12:57;;;;;;;57.07;1.70;;;;;;;;;;5095369;28;20481;-78
2022/04/28 11:15:27;;;;;;;56.87;1.53;;;;;;;;;;5095389;28;20461;-78
2022/04/28 11:17:54;;;;;;;57.00;1.50;;;;;;;;;;5094765;28;20450;-78
2022/04/28 11:20:23;;;;;;;56.93;1.67;;;;;;;;;;5095125;28;20519;-78
2022/04/28 11:22:51;;;;;;;56.80;1.60;;;;;;;;;;5095490;28;20460;-78
2022/04/28 11:25:20;;;;;;;56.57;1.60;;;;;;;;;;5095250;28;20462;-78
2022/04/28 11:27:50;;;;;;;56.73;1.73;;;;;;;;;;5094334;28;20865;-78
2022/04/28 11:30:18;;;;;;;56.67;1.53;;;;;;;;;;5095441;28;20478;-78
2022/04/28 11:32:50;;;;;;;56.77;1.60;;;;;;;;;;5095187;28;20450;-79
2022/04/28 11:35:18;;;;;;;56.93;1.60;;;;;;;;;;5095175;28;20450;-79
2022/04/28 11:37:48;;;;;;;56.63;1.63;;;;;;;;;;5094957;28;20537;-78
2022/04/28 11:40:16;;;;;;;56.83;1.80;;;;;;;;;;5094644;28;20485;-79
2022/04/28 11:42:44;;;;;;;56.67;1.67;;;;;;;;;;5095233;28;20942;-77
2022/04/28 11:45:12;;;;;;;56.77;1.60;;;;;;;;;;5095907;28;20457;-78
2022/04/28 11:47:43;;;;;;;56.47;1.80;;;;;;;;;;5094679;28;21089;-78
2022/04/28 11:50:18;;;;;;;56.73;1.60;;;;;;;;;;5094918;28;20866;-78
2022/04/28 11:52:46;;;;;;;56.90;1.77;;;;;;;;;;5094876;28;20446;-78
2022/04/28 11:55:14;;;;;;;57.10;1.90;;;;;;;;;;5094983;28;20526;-78
2022/04/28 11:57:41;;;;;;;56.87;1.70;;;;;;;;;;5094392;28;20530;-78
2022/04/28 12:00:09;;;;;;;56.87;2.70;;;;;;;;;;5094623;28;20471;-77
2022/04/28 12:02:37;;;;;;;56.57;1.90;;;;;;;;;;5094739;28;20454;-77
2022/04/28 12:05:05;;;;;;;56.80;1.57;;;;;;;;;;5094240;28;20449;-77
2022/04/28 12:07:34;;;;;;;56.87;1.70;;;;;;;;;;5093575;28;20489;-78
2022/04/28 12:15:33;;;;;;;56.67;1.50;;;;;;;;;;5094420;28;20455;-78
2022/04/28 12:20:54;;;;;;;56.67;1.67;;;;;;;;;;5095916;28;20426;-78
2022/04/28 12:23:31;;;;;;;56.77;2.03;;;;;;;;;;5094795;28;20554;-77
2022/04/28 12:26:00;;;;;;;56.90;1.83;;;;;;;;;;5094544;28;20938;-79
2022/04/28 12:28:31;;;;;;;56.67;1.50;;;;;;;;;;5094912;28;20867;-79
2022/04/28 12:30:59;;;;;;;56.87;1.70;;;;;;;;;;5094848;28;20942;-79
2022/04/28 12:33:27;;;;;;;56.63;1.70;;;;;;;;;;5094209;28;20528;-79
2022/04/28 12:35:58;;;;;;;56.63;1.70;;;;;;;;;;5094504;28;20898;-79
2022/04/28 12:38:27;;;;;;;56.83;1.60;;;;;;;;;;5095684;28;20474;-78
2022/04/28 12:40:54;;;;;;;56.83;1.70;;;;;;;;;;5094116;28;20450;-78
2022/04/28 12:43:39;;;;;;;56.70;1.70;;;;;;;;;;5094558;28;20496;-79
2022/04/28 12:46:07;;;;;;;56.70;1.77;;;;;;;;;;5094497;28;20442;-78
2022/04/28 12:48:35;;;;;;;56.73;1.63;;;;;;;;;;5092809;28;20486;-78
2022/04/28 12:51:12;;;;;;;56.57;1.50;;;;;;;;;;5100780;28;20459;-79
2022/04/28 12:53:40;;;;;;;56.37;1.50;;;;;;;;;;5093715;28;20452;-78
2022/04/28 12:56:08;;;;;;;56.63;1.70;;;;;;;;;;5093545;28;20827;-78
2022/04/28 12:58:41;;;;;;;56.40;1.70;;;;;;;;;;5092528;28;20529;-78
2022/04/28 13:01:13;;;;;;;56.60;1.60;;;;;;;;;;5093359;28;20478;-78
2022/04/28 13:03:40;;;;;;;56.47;1.60;;;;;;;;;;5093516;28;20891;-79
2022/04/28 13:06:08;;;;;;;56.70;2.13;;;;;;;;;;5093381;28;20824;-73
2022/04/28 13:08:35;;;;;;;56.50;1.87;;;;;;;;;;5091885;28;20482;-73
2022/04/28 13:11:04;;;;;;;56.87;1.50;;;;;;;;;;5093290;28;20640;-73
2022/04/28 13:13:31;;;;;;;56.67;1.60;;;;;;;;;;5093017;28;20443;-73
2022/04/28 13:15:59;;;;;;;56.83;1.60;;;;;;;;;;5092799;28;20810;-72
2022/04/28 13:18:26;;;;;;;56.87;1.60;;;;;;;;;;5092411;28;20530;-72
2022/04/28 13:20:54;;;;;;;56.77;1.77;;;;;;;;;;5092836;28;20451;-72
2022/04/28 13:23:21;;;;;;;56.73;1.77;;;;;;;;;;5092943;28;20529;-73
2022/04/28 13:25:48;;;;;;;57.17;2.47;;;;;;;;;;5092844;28;20450;-72
2022/04/28 13:28:15;;;;;;;57.07;1.60;;;;;;;;;;5091933;28;20573;-72
2022/04/28 13:30:42;;;;;;;56.93;1.80;;;;;;;;;;5092771;28;20470;-72
2022/04/28 13:33:11;;;;;;;56.97;1.80;;;;;;;;;;5092574;28;20533;-73
2022/04/28 13:35:38;;;;;;;57.10;1.80;;;;;;;;;;5092843;28;20449;-72
2022/04/28 13:38:08;;;;;;;57.30;2.37;;;;;;;;;;5091980;28;20874;-73
2022/04/28 13:40:35;;;;;;;57.10;1.70;;;;;;;;;;5092380;28;20469;-73
2022/04/28 13:43:02;;;;;;;56.77;1.67;;;;;;;;;;5092414;28;20446;-73
2022/04/28 13:45:30;;;;;;;57.07;1.53;;;;;;;;;;5092700;28;20726;-73
2022/04/28 13:47:57;;;;;;;56.73;1.60;;;;;;;;;;5091441;28;20523;-74
2022/04/28 13:50:25;;;;;;;57.40;2.80;;;;;;;;;;5092491;28;20471;-74
2022/04/28 13:52:53;;;;;;;57.50;3.70;;;;;;;;;;5092298;28;21209;-74
2022/04/28 13:55:20;;;;;;;56.63;1.67;;;;;;;;;;5092228;28;20446;-72
2022/04/28 13:57:48;;;;;;;56.90;2.43;;;;;;;;;;5091482;28;20939;-73
2022/04/28 14:00:16;;;;;;;56.97;1.70;;;;;;;;;;5092354;28;20900;-73
2022/04/28 14:02:43;;;;;;;56.67;1.70;;;;;;;;;;5092272;28;20446;-73
2022/04/28 14:05:11;;;;;;;56.73;1.60;;;;;;;;;;5092109;28;20533;-73
2022/04/28 14:07:40;;;;;;;56.53;1.60;;;;;;;;;;5091290;28;20478;-73
2022/04/28 14:10:09;;;;;;;57.10;2.23;;;;;;;;;;5091831;28;20471;-73
2022/04/28 14:12:37;;;;;;;56.73;1.67;;;;;;;;;;5091047;28;20442;-72
2022/04/28 14:15:04;;;;;;;56.63;1.70;;;;;;;;;;5092065;28;20457;-72
2022/04/28 14:17:32;;;;;;;57.00;2.00;;;;;;;;;;5091412;28;20449;-72
2022/04/28 14:20:00;;;;;;;57.00;2.13;;;;;;;;;;5091873;28;20862;-72
2022/04/28 14:22:27;;;;;;;56.90;2.03;;;;;;;;;;5091770;28;20454;-73
2022/04/28 14:24:56;;;;;;;56.97;1.60;;;;;;;;;;5092281;28;20542;-72
2022/04/28 14:27:23;;;;;;;56.77;1.90;;;;;;;;;;5091010;28;20488;-73
2022/04/28 14:29:51;;;;;;;56.57;1.60;;;;;;;;;;5092025;28;20480;-72
2022/04/28 14:32:19;;;;;;;57.00;1.70;;;;;;;;;;5092035;28;20442;-72
2022/04/28 14:34:46;;;;;;;57.00;1.63;;;;;;;;;;5091860;28;20481;-72
2022/04/28 14:37:14;;;;;;;56.87;1.60;;;;;;;;;;5090955;28;20446;-72
2022/04/28 14:39:41;;;;;;;56.83;1.70;;;;;;;;;;5091954;28;20826;-72
2022/04/28 14:42:10;;;;;;;57.07;1.80;;;;;;;;;;5091949;28;20443;-72
2022/04/28 14:44:37;;;;;;;56.77;1.60;;;;;;;;;;5091742;28;20445;-72
2022/04/28 14:47:04;;;;;;;57.00;1.60;;;;;;;;;;5091671;28;20451;-72
2022/04/28 14:52:23;;;;;;;56.90;1.53;;;;;;;;;;5091971;28;20917;-73
2022/04/28 14:54:53;;;;;;;56.97;1.60;;;;;;;;;;5091803;28;20448;-73
2022/04/28 14:57:22;;;;;;;56.80;1.70;;;;;;;;;;5091018;28;20495;-73
2022/04/28 14:59:49;;;;;;;56.97;1.70;;;;;;;;;;5091501;28;20548;-73
2022/04/28 15:02:16;;;;;;;57.10;1.87;;;;;;;;;;5091416;28;20813;-73
2022/04/28 15:04:45;;;;;;;57.27;1.80;;;;;;;;;;5091725;28;20455;-73
2022/04/28 15:07:12;;;;;;;57.17;1.67;;;;;;;;;;5090997;28;20457;-72
2022/04/28 15:09:40;;;;;;;57.27;1.70;;;;;;;;;;5091629;28;20482;-72
2022/04/28 15:12:07;;;;;;;57.17;1.90;;;;;;;;;;5091340;28;20454;-72
2022/04/28 15:14:36;;;;;;;57.27;1.80;;;;;;;;;;5091309;28;20453;-72
2022/04/28 15:17:03;;;;;;;57.57;2.37;;;;;;;;;;5091105;28;20449;-72
2022/04/28 15:19:30;;;;;;;57.37;1.83;;;;;;;;;;5091004;28;20773;-73